Terminal Aerodrome Forecast
Issued by NWS Sioux Falls, SD

Home | Current Version | Previous Version | Graphics & Text | Print | Product List | Glossary Off
Versions: 1 2 3 4 5 6 7 8 9 10 11 12 13

000
FTUS43 KFSD 141125
TAFFSD
TAF
KFSD 141125Z 1412/1512 VRB03KT P6SM SKC
     FM141600 01004KT P6SM SCT100 BKN250
     FM150100 03006KT P6SM SCT040 BKN080
      TEMPO 1503/1507 6SM -RA BKN040
     FM151000 36007KT P6SM BKN040=

USA.gov is the U.S. government's official web portal to all federal, state and local government web resources and services.